createdAt,value
2024-02-13T00:00:58.168Z,8.48
2024-02-13T00:03:25.742Z,7.65
2024-02-13T00:05:53.065Z,9.40
2024-02-13T00:08:20.020Z,8.18
2024-02-13T00:10:47.256Z,8.40
2024-02-13T00:13:13.829Z,9.77
2024-02-13T00:15:40.658Z,8.43
2024-02-13T00:18:09.304Z,7.78
2024-02-13T00:20:36.127Z,7.32
2024-02-13T00:23:04.248Z,7.93
2024-02-13T00:25:30.793Z,8.27
2024-02-13T00:27:57.352Z,9.10
2024-02-13T00:30:24.799Z,8.65
2024-02-13T00:32:51.523Z,7.50
2024-02-13T00:35:18.227Z,9.60
2024-02-13T00:37:45.553Z,9.77
2024-02-13T00:40:12.066Z,8.45
2024-02-13T00:42:38.998Z,9.45
2024-02-13T00:45:08.306Z,8.60
2024-02-13T00:47:35.546Z,10.93
2024-02-13T00:50:03.828Z,9.15
2024-02-13T00:52:30.330Z,9.20
2024-02-13T00:54:57.387Z,10.00
2024-02-13T00:57:25.267Z,10.18
2024-02-13T00:59:52.422Z,9.52
2024-02-13T01:02:19.118Z,9.93
2024-02-13T01:04:45.703Z,10.90
2024-02-13T01:07:12.333Z,10.80
2024-02-13T01:09:38.844Z,10.50
2024-02-13T01:12:05.459Z,11.25
2024-02-13T01:14:32.366Z,11.57
2024-02-13T01:16:58.906Z,11.63
2024-02-13T01:19:25.376Z,9.57
2024-02-13T01:21:51.999Z,12.05
2024-02-13T01:24:18.504Z,14.88
2024-02-13T01:26:45.848Z,9.95
2024-02-13T01:29:15.912Z,10.32
2024-02-13T01:31:43.240Z,11.50
2024-02-13T01:34:09.885Z,11.27
2024-02-13T01:36:38.874Z,9.77
2024-02-13T01:39:06.296Z,12.00
2024-02-13T01:41:33.254Z,11.20
2024-02-13T01:44:00.914Z,13.07
2024-02-13T01:46:29.586Z,12.32
2024-02-13T01:49:00.011Z,12.63
2024-02-13T01:51:29.085Z,12.00
2024-02-13T01:53:59.810Z,14.18
2024-02-13T01:56:28.908Z,11.45
2024-02-13T01:58:56.782Z,13.80
2024-02-13T02:01:25.968Z,11.70
2024-02-13T02:03:54.694Z,13.02
2024-02-13T02:06:21.941Z,13.13
2024-02-13T02:08:48.851Z,14.40
2024-02-13T02:11:15.560Z,11.20
2024-02-13T02:13:43.667Z,16.35
2024-02-13T02:16:10.282Z,14.13
2024-02-13T02:18:37.415Z,13.10
2024-02-13T02:21:04.286Z,18.48
2024-02-13T02:23:31.060Z,15.73
2024-02-13T02:25:57.886Z,14.13
2024-02-13T02:28:25.425Z,15.30
2024-02-13T02:30:52.173Z,12.50
2024-02-13T02:33:19.020Z,14.20
2024-02-13T02:35:45.653Z,15.52
2024-02-13T02:38:12.399Z,14.38
2024-02-13T02:40:39.047Z,15.15
2024-02-13T02:43:05.600Z,13.43
2024-02-13T02:45:32.225Z,14.30
2024-02-13T02:47:58.906Z,15.25
2024-02-13T02:50:25.681Z,15.45
2024-02-13T02:52:52.802Z,21.17
2024-02-13T02:55:19.851Z,13.10
2024-02-13T02:57:46.714Z,15.68
2024-02-13T03:00:15.690Z,16.38
2024-02-13T03:02:42.958Z,16.77
2024-02-13T03:05:10.300Z,18.60
2024-02-13T03:07:37.306Z,13.77
2024-02-13T03:10:11.201Z,14.30
2024-02-13T03:12:38.494Z,13.48
2024-02-13T03:15:05.422Z,14.07
2024-02-13T03:17:32.886Z,16.60
2024-02-13T03:19:59.555Z,14.50
2024-02-13T03:22:29.297Z,15.30
2024-02-13T03:24:55.909Z,14.32
2024-02-13T03:27:22.454Z,18.73
2024-02-13T03:29:49.111Z,15.32
2024-02-13T03:32:15.763Z,19.77
2024-02-13T03:34:42.944Z,14.60
2024-02-13T03:37:09.854Z,12.18
2024-02-13T03:39:37.212Z,17.75
2024-02-13T03:42:04.020Z,15.70
2024-02-13T03:44:30.544Z,15.38
2024-02-13T03:46:57.049Z,13.60
2024-02-13T03:49:24.241Z,10.00
2024-02-13T03:51:50.825Z,14.40
2024-02-13T03:54:17.367Z,10.93
2024-02-13T03:56:44.556Z,14.27
2024-02-13T03:59:14.044Z,12.70
2024-02-13T04:01:41.016Z,12.52
2024-02-13T04:04:07.586Z,12.45
2024-02-13T04:06:34.563Z,12.30
2024-02-13T04:09:03.948Z,13.00
2024-02-13T04:11:31.658Z,10.77
2024-02-13T04:13:58.428Z,14.07
2024-02-13T04:16:25.263Z,10.52
2024-02-13T04:18:54.403Z,12.82
2024-02-13T04:21:21.925Z,10.68
2024-02-13T04:23:50.228Z,14.20
2024-02-13T04:26:25.984Z,10.30
2024-02-13T04:29:02.791Z,12.48
2024-02-13T04:31:29.293Z,14.52
2024-02-13T04:33:55.999Z,9.93
2024-02-13T04:36:22.691Z,10.43
2024-02-13T04:38:49.456Z,13.85
2024-02-13T04:41:19.359Z,9.57
2024-02-13T04:43:46.006Z,12.23
2024-02-13T04:46:12.538Z,13.48
2024-02-13T04:48:40.451Z,11.70
2024-02-13T04:51:07.111Z,15.85
2024-02-13T04:53:33.911Z,15.27
2024-02-13T04:56:00.580Z,16.67
2024-02-13T04:58:31.574Z,19.05
2024-02-13T05:01:06.615Z,16.30
2024-02-13T05:03:42.857Z,12.90
2024-02-13T05:06:28.512Z,16.80
2024-02-13T05:08:57.142Z,16.70
2024-02-13T05:11:24.844Z,14.68
2024-02-13T05:13:52.028Z,15.82
2024-02-13T05:16:19.634Z,13.48
2024-02-13T05:18:49.297Z,14.07
2024-02-13T05:21:19.820Z,16.92
2024-02-13T05:23:48.746Z,14.88
2024-02-13T05:26:15.578Z,16.30
2024-02-13T05:28:43.694Z,16.70
2024-02-13T05:31:10.423Z,15.02
2024-02-13T05:33:37.535Z,15.65
2024-02-13T05:36:05.306Z,15.18
2024-02-13T05:38:38.979Z,17.13
2024-02-13T05:41:08.522Z,15.18
2024-02-13T05:43:34.990Z,17.73
2024-02-13T05:46:01.546Z,17.33
2024-02-13T05:48:28.178Z,17.08
2024-02-13T05:50:55.765Z,17.02
2024-02-13T05:53:23.163Z,19.38
2024-02-13T05:55:50.003Z,22.10
2024-02-13T05:58:16.471Z,18.77
2024-02-13T06:00:43.272Z,18.60
2024-02-13T06:03:10.072Z,16.95
2024-02-13T06:05:36.804Z,17.73
2024-02-13T06:08:04.833Z,17.50
2024-02-13T06:10:34.911Z,18.70
2024-02-13T06:13:01.458Z,17.65
2024-02-13T06:15:27.976Z,19.30
2024-02-13T06:17:55.534Z,18.75
2024-02-13T06:20:22.365Z,17.15
2024-02-13T06:22:48.992Z,20.42
2024-02-13T06:25:16.175Z,20.95
2024-02-13T06:27:42.688Z,18.23
2024-02-13T06:30:09.737Z,17.38
2024-02-13T06:32:36.361Z,18.88
2024-02-13T06:35:03.071Z,20.52
2024-02-13T06:37:29.565Z,17.83
2024-02-13T06:39:56.578Z,19.83
2024-02-13T06:42:23.096Z,22.13
2024-02-13T06:44:49.764Z,20.50
2024-02-13T06:47:16.285Z,21.33
2024-02-13T06:49:42.912Z,17.02
2024-02-13T06:52:10.914Z,22.00
2024-02-13T06:54:37.513Z,22.65
2024-02-13T06:57:04.972Z,21.50
2024-02-13T06:59:31.640Z,22.08
2024-02-13T07:01:58.276Z,19.15
2024-02-13T07:04:24.858Z,20.33
2024-02-13T07:07:08.540Z,23.65
2024-02-13T07:09:46.940Z,24.75
2024-02-13T07:12:13.511Z,23.02
2024-02-13T07:14:40.206Z,20.80
2024-02-13T07:17:06.746Z,22.42
2024-02-13T07:19:33.373Z,23.88
2024-02-13T07:21:59.892Z,20.85
2024-02-13T07:24:26.469Z,22.17
2024-02-13T07:26:53.106Z,23.77
2024-02-13T07:29:20.197Z,22.88
2024-02-13T07:31:47.690Z,24.83
2024-02-13T07:34:14.289Z,24.92
2024-02-13T07:36:41.034Z,24.73
2024-02-13T07:39:08.446Z,25.58
2024-02-13T07:41:36.702Z,28.00
2024-02-13T07:44:03.402Z,25.33
2024-02-13T07:46:30.397Z,26.23
2024-02-13T07:48:57.039Z,27.98
2024-02-13T07:51:24.053Z,27.05
2024-02-13T07:53:50.899Z,27.02
2024-02-13T07:56:20.220Z,30.67
2024-02-13T07:58:46.807Z,27.17
2024-02-13T08:01:13.958Z,26.17
2024-02-13T08:03:40.573Z,26.75
2024-02-13T08:06:07.572Z,25.10
2024-02-13T08:08:34.731Z,29.40
2024-02-13T08:11:01.311Z,27.02
2024-02-13T08:13:27.776Z,28.92
2024-02-13T08:15:54.273Z,28.80
2024-02-13T08:18:20.897Z,27.23
2024-02-13T08:20:47.692Z,24.25
2024-02-13T08:23:14.667Z,27.40
2024-02-13T08:25:41.598Z,31.67
2024-02-13T08:28:11.242Z,28.83
2024-02-13T08:30:38.010Z,27.13
2024-02-13T08:33:05.621Z,26.15
2024-02-13T08:35:32.514Z,30.33
2024-02-13T08:37:59.694Z,26.13
2024-02-13T08:40:26.230Z,26.55
2024-02-13T08:42:54.032Z,26.70
2024-02-13T08:45:21.955Z,26.40
2024-02-13T08:47:50.795Z,30.58
2024-02-13T08:50:18.428Z,31.30
2024-02-13T08:52:45.468Z,30.40
2024-02-13T08:55:11.946Z,27.92
2024-02-13T08:57:39.016Z,29.92
2024-02-13T09:00:11.421Z,29.33
2024-02-13T09:02:38.348Z,31.17
2024-02-13T09:05:05.738Z,32.45
2024-02-13T09:07:32.595Z,33.47
2024-02-13T09:09:59.709Z,32.83
2024-02-13T09:12:26.386Z,30.42
2024-02-13T09:14:53.019Z,33.05
2024-02-13T09:17:19.733Z,36.92
2024-02-13T09:19:46.524Z,31.33
2024-02-13T09:22:14.887Z,27.98
2024-02-13T09:24:45.387Z,29.38
2024-02-13T09:27:12.702Z,33.25
2024-02-13T09:29:39.777Z,31.77
2024-02-13T09:32:06.476Z,28.75
2024-02-13T09:34:33.214Z,28.75
2024-02-13T09:37:00.225Z,30.45
2024-02-13T09:39:26.766Z,32.22
2024-02-13T09:41:55.180Z,25.95
2024-02-13T09:44:21.855Z,27.50
2024-02-13T09:46:50.811Z,29.42
2024-02-13T09:49:18.304Z,32.78
2024-02-13T09:51:49.249Z,28.77
2024-02-13T09:54:16.612Z,29.42
2024-02-13T09:56:43.838Z,31.40
2024-02-13T09:59:13.128Z,30.67
2024-02-13T10:01:39.895Z,29.35
2024-02-13T10:04:07.969Z,30.90
2024-02-13T10:06:34.871Z,34.15
2024-02-13T10:09:02.165Z,29.70
2024-02-13T10:11:37.503Z,31.60
2024-02-13T10:14:04.306Z,27.50
2024-02-13T10:16:32.040Z,30.63
2024-02-13T10:19:01.642Z,32.17
2024-02-13T10:21:30.488Z,30.13
2024-02-13T10:24:14.821Z,32.70
2024-02-13T10:29:09.009Z,35.30
2024-02-13T10:31:36.670Z,32.90
2024-02-13T10:34:08.349Z,30.92
2024-02-13T10:36:39.783Z,31.60
2024-02-13T10:39:09.338Z,30.45
2024-02-13T10:41:44.759Z,35.25
2024-02-13T10:44:12.120Z,37.95
2024-02-13T10:46:43.098Z,29.30
2024-02-13T10:49:34.276Z,33.83
2024-02-13T10:52:00.928Z,37.17
2024-02-13T10:54:28.090Z,38.47
2024-02-13T10:56:56.194Z,29.30
2024-02-13T10:59:23.795Z,35.75
2024-02-13T11:01:52.903Z,31.70
2024-02-13T11:04:20.948Z,31.73
2024-02-13T11:06:47.610Z,31.20
2024-02-13T11:09:14.496Z,33.55
2024-02-13T11:11:46.110Z,31.13
2024-02-13T11:14:23.227Z,32.55
2024-02-13T11:17:10.777Z,33.58
2024-02-13T11:19:45.650Z,35.05
2024-02-13T11:22:17.428Z,32.45
2024-02-13T11:24:53.107Z,32.58
2024-02-13T11:27:29.872Z,36.97
2024-02-13T11:30:00.175Z,34.10
2024-02-13T11:32:30.658Z,36.05
2024-02-13T11:35:02.623Z,31.17
2024-02-13T11:37:29.700Z,33.03
2024-02-13T11:39:58.714Z,32.30
2024-02-13T11:42:33.643Z,34.58
2024-02-13T11:45:01.559Z,29.08
2024-02-13T11:47:28.455Z,29.63
2024-02-13T11:49:56.428Z,31.65
2024-02-13T11:52:24.596Z,30.23
2024-02-13T11:54:52.228Z,32.53
2024-02-13T11:57:20.993Z,28.17
2024-02-13T12:00:02.572Z,32.47
2024-02-13T12:02:31.078Z,32.30
2024-02-13T12:04:57.574Z,31.95
2024-02-13T12:07:24.168Z,30.50
2024-02-13T12:09:52.387Z,32.22
2024-02-13T12:12:19.899Z,32.90
2024-02-13T12:14:46.907Z,28.67
2024-02-13T12:17:13.810Z,27.70
2024-02-13T12:19:41.872Z,28.05
2024-02-13T12:22:14.560Z,29.52
2024-02-13T12:24:41.778Z,27.45
2024-02-13T12:27:11.719Z,30.27
2024-02-13T12:29:43.630Z,28.65
2024-02-13T12:32:17.248Z,24.35
2024-02-13T12:34:45.024Z,28.50
2024-02-13T12:37:21.471Z,27.08
2024-02-13T12:39:48.775Z,27.42
2024-02-13T12:42:18.289Z,24.83
2024-02-13T12:44:45.457Z,26.67
2024-02-13T12:47:14.972Z,25.17
2024-02-13T12:49:46.670Z,23.98
2024-02-13T12:52:18.052Z,23.88
2024-02-13T12:54:47.400Z,22.10
2024-02-13T12:57:14.129Z,22.98
2024-02-13T12:59:40.632Z,21.88
2024-02-13T13:02:10.295Z,25.58
2024-02-13T13:04:37.040Z,24.00
2024-02-13T13:07:06.798Z,26.00
2024-02-13T13:09:33.428Z,22.75
2024-02-13T13:12:00.167Z,25.30
2024-02-13T13:14:28.791Z,27.75
2024-02-13T13:16:56.600Z,23.88
2024-02-13T13:19:28.789Z,25.95
2024-02-13T13:21:56.460Z,22.73
2024-02-13T13:24:24.019Z,22.23
2024-02-13T13:26:51.573Z,21.48
2024-02-13T13:29:18.784Z,24.98
2024-02-13T13:31:48.589Z,20.90
2024-02-13T13:34:21.307Z,22.38
2024-02-13T13:36:48.714Z,23.73
2024-02-13T13:39:15.293Z,23.92
2024-02-13T13:41:42.569Z,22.05
2024-02-13T13:44:10.986Z,24.30
2024-02-13T13:46:37.603Z,23.58
2024-02-13T13:49:05.461Z,24.10
2024-02-13T13:51:34.713Z,21.58
2024-02-13T13:54:01.803Z,21.65
2024-02-13T13:56:28.371Z,18.98
2024-02-13T13:58:54.824Z,21.60
2024-02-13T14:01:21.462Z,21.98
2024-02-13T14:03:48.125Z,19.85
2024-02-13T14:06:14.898Z,21.40
2024-02-13T14:08:42.007Z,21.92
2024-02-13T14:11:08.689Z,20.95
2024-02-13T14:13:35.793Z,18.25
2024-02-13T14:16:02.430Z,20.52
2024-02-13T14:18:29.760Z,23.58
2024-02-13T14:20:56.946Z,21.23
2024-02-13T14:23:24.535Z,22.30
2024-02-13T14:25:51.687Z,18.88
2024-02-13T14:28:19.055Z,20.88
2024-02-13T14:30:47.216Z,16.67
2024-02-13T14:33:14.557Z,19.92
2024-02-13T14:35:43.422Z,20.50
2024-02-13T14:38:10.143Z,22.15
2024-02-13T14:40:40.857Z,19.77
2024-02-13T14:43:08.840Z,17.27
2024-02-13T14:45:36.737Z,19.02
2024-02-13T14:48:10.356Z,20.58
2024-02-13T14:50:39.033Z,17.70
2024-02-13T14:53:10.003Z,16.77
2024-02-13T14:55:39.681Z,14.57
2024-02-13T14:58:14.706Z,17.35
2024-02-13T15:00:54.151Z,15.90
2024-02-13T15:03:22.516Z,15.93
2024-02-13T15:05:49.280Z,16.00
2024-02-13T15:08:17.175Z,15.95
2024-02-13T15:10:45.334Z,15.30
2024-02-13T15:13:13.921Z,13.38
2024-02-13T15:15:40.468Z,13.15
2024-02-13T15:18:07.638Z,16.52
2024-02-13T15:20:36.429Z,15.82
2024-02-13T15:23:02.978Z,16.27
2024-02-13T15:25:30.018Z,14.40
2024-02-13T15:27:56.535Z,16.83
2024-02-13T15:30:23.870Z,18.15
2024-02-13T15:32:50.682Z,15.63
2024-02-13T15:35:20.226Z,22.58
2024-02-13T15:38:05.817Z,13.90
2024-02-13T15:40:51.003Z,13.90
2024-02-13T15:43:36.268Z,16.27
2024-02-13T15:46:21.112Z,15.73
2024-02-13T15:48:48.599Z,16.48
2024-02-13T15:51:15.959Z,12.75
2024-02-13T15:53:43.104Z,15.30
2024-02-13T15:56:10.996Z,15.70
2024-02-13T15:58:39.989Z,13.05
2024-02-13T16:01:07.258Z,17.35
2024-02-13T16:03:37.278Z,12.65
2024-02-13T16:06:04.236Z,12.80
2024-02-13T16:08:31.416Z,14.57
2024-02-13T16:10:58.639Z,15.77
2024-02-13T16:13:27.651Z,13.70
2024-02-13T16:15:56.162Z,13.30
2024-02-13T16:18:23.938Z,11.30
2024-02-13T16:20:50.590Z,14.40
2024-02-13T16:23:17.277Z,13.70
2024-02-13T16:25:44.018Z,15.90
2024-02-13T16:28:10.892Z,13.05
2024-02-13T16:30:37.474Z,13.85
2024-02-13T16:33:05.475Z,11.43
2024-02-13T16:35:32.494Z,11.75
2024-02-13T16:37:59.025Z,13.00
2024-02-13T16:40:27.612Z,10.93
2024-02-13T16:42:56.859Z,11.63
2024-02-13T16:45:25.461Z,10.32
2024-02-13T16:47:53.476Z,13.15
2024-02-13T16:50:20.589Z,10.93
2024-02-13T16:52:47.420Z,12.27
2024-02-13T16:55:15.060Z,13.15
2024-02-13T16:57:42.545Z,13.45
2024-02-13T17:00:11.777Z,12.75
2024-02-13T17:02:41.976Z,14.63
2024-02-13T17:05:12.140Z,15.00
2024-02-13T17:07:42.554Z,12.60
2024-02-13T17:10:10.021Z,13.73
2024-02-13T17:12:37.615Z,11.55
2024-02-13T17:15:08.500Z,16.30
2024-02-13T17:17:36.234Z,16.15
2024-02-13T17:20:05.066Z,11.65
2024-02-13T17:22:31.809Z,13.13
2024-02-13T17:24:58.342Z,19.60
2024-02-13T17:27:25.483Z,10.60
2024-02-13T17:29:52.965Z,12.57
2024-02-13T17:32:19.927Z,11.02
2024-02-13T17:34:46.460Z,11.70
2024-02-13T17:37:13.100Z,11.10
2024-02-13T17:39:39.619Z,12.80
2024-02-13T17:42:06.701Z,12.77
2024-02-13T17:44:33.353Z,14.10
2024-02-13T17:47:00.028Z,11.45
2024-02-13T17:49:26.750Z,15.00
2024-02-13T17:51:53.460Z,11.68
2024-02-13T17:54:19.974Z,13.05
2024-02-13T17:56:46.984Z,13.25
2024-02-13T17:59:13.543Z,15.60
2024-02-13T18:01:47.840Z,13.40
2024-02-13T18:04:14.417Z,12.00
2024-02-13T18:06:41.107Z,13.40
2024-02-13T18:09:07.989Z,11.80
2024-02-13T18:11:34.638Z,12.15
2024-02-13T18:14:01.893Z,14.05
2024-02-13T18:16:28.664Z,10.23
2024-02-13T18:18:57.295Z,11.07
2024-02-13T18:21:24.065Z,10.57
2024-02-13T18:23:55.217Z,10.77
2024-02-13T18:26:23.688Z,15.23
2024-02-13T18:28:50.246Z,12.73
2024-02-13T18:31:16.703Z,11.38
2024-02-13T18:33:43.558Z,12.90
2024-02-13T18:36:10.222Z,12.80
2024-02-13T18:38:36.996Z,10.85
2024-02-13T18:41:03.826Z,12.15
2024-02-13T18:43:30.478Z,12.75
2024-02-13T18:45:56.954Z,13.10
2024-02-13T18:48:26.483Z,12.82
2024-02-13T18:50:53.238Z,15.13
2024-02-13T18:53:28.059Z,16.63
2024-02-13T18:55:55.240Z,13.38
2024-02-13T18:58:22.038Z,12.55
2024-02-13T19:00:49.918Z,15.05
2024-02-13T19:03:20.681Z,13.43
2024-02-13T19:05:49.344Z,11.82
2024-02-13T19:08:15.955Z,10.48
2024-02-13T19:10:43.356Z,10.77
2024-02-13T19:13:09.860Z,11.48
2024-02-13T19:15:36.578Z,11.82
2024-02-13T19:18:03.659Z,10.38
2024-02-13T19:20:30.436Z,13.35
2024-02-13T19:22:56.998Z,8.75
2024-02-13T19:25:23.589Z,10.57
2024-02-13T19:27:50.903Z,11.73
2024-02-13T19:30:17.567Z,11.10
2024-02-13T19:32:44.149Z,10.27
2024-02-13T19:35:11.065Z,11.02
2024-02-13T19:37:38.068Z,13.70
2024-02-13T19:40:08.492Z,11.52
2024-02-13T19:42:36.386Z,14.05
2024-02-13T19:45:05.442Z,8.15
2024-02-13T19:47:32.570Z,9.95
2024-02-13T19:49:59.971Z,10.15
2024-02-13T19:52:30.734Z,11.60
2024-02-13T19:54:57.238Z,14.27
2024-02-13T19:57:23.707Z,9.27
2024-02-13T19:59:53.234Z,10.43
2024-02-13T20:02:21.126Z,8.48
2024-02-13T20:04:48.912Z,9.88
2024-02-13T20:07:16.273Z,9.40
2024-02-13T20:09:45.957Z,10.10
2024-02-13T20:12:12.664Z,12.00
2024-02-13T20:14:39.228Z,10.82
2024-02-13T20:17:06.092Z,10.02
2024-02-13T20:19:35.541Z,8.82
2024-02-13T20:22:02.352Z,10.57
2024-02-13T20:24:31.781Z,9.88
2024-02-13T20:26:59.824Z,9.68
2024-02-13T20:29:27.367Z,10.77
2024-02-13T20:31:53.902Z,12.55
2024-02-13T20:34:20.639Z,10.55
2024-02-13T20:36:53.387Z,10.48
2024-02-13T20:39:19.914Z,8.25
2024-02-13T20:41:46.444Z,10.80
2024-02-13T20:44:13.591Z,14.70
2024-02-13T20:46:42.120Z,12.93
2024-02-13T20:49:09.580Z,12.38
2024-02-13T20:51:36.684Z,6.63
2024-02-13T20:54:04.342Z,14.20
2024-02-13T20:56:30.940Z,9.00
2024-02-13T20:58:58.360Z,7.72
2024-02-13T21:01:28.240Z,8.13
2024-02-13T21:03:55.337Z,7.93
2024-02-13T21:06:25.086Z,9.43
2024-02-13T21:08:52.442Z,10.35
2024-02-13T21:11:19.541Z,12.95
2024-02-13T21:13:46.771Z,7.63
2024-02-13T21:16:15.456Z,7.82
2024-02-13T21:18:42.835Z,11.15
2024-02-13T21:21:28.060Z,8.60
2024-02-13T21:23:54.885Z,10.73
2024-02-13T21:26:21.543Z,11.15
2024-02-13T21:28:50.745Z,9.30
2024-02-13T21:31:17.544Z,8.82
2024-02-13T21:33:44.530Z,10.52
2024-02-13T21:36:11.323Z,9.93
2024-02-13T21:38:39.247Z,8.60
2024-02-13T21:41:06.199Z,8.70
2024-02-13T21:43:32.741Z,6.25
2024-02-13T21:45:59.422Z,6.38
2024-02-13T21:48:26.133Z,7.57
2024-02-13T21:50:52.745Z,6.18
2024-02-13T21:53:19.495Z,7.32
2024-02-13T21:55:46.019Z,5.88
2024-02-13T21:58:12.852Z,8.63
2024-02-13T22:00:39.361Z,7.50
2024-02-13T22:03:06.794Z,8.00
2024-02-13T22:05:34.145Z,6.22
2024-02-13T22:08:00.669Z,8.07
2024-02-13T22:10:27.161Z,7.68
2024-02-13T22:12:54.250Z,8.32
2024-02-13T22:15:22.107Z,9.23
2024-02-13T22:17:49.179Z,9.75
2024-02-13T22:20:16.796Z,7.50
2024-02-13T22:22:43.610Z,8.32
2024-02-13T22:25:11.398Z,7.80
2024-02-13T22:27:37.970Z,7.22
2024-02-13T22:30:04.964Z,9.55
2024-02-13T22:32:32.906Z,8.10
2024-02-13T22:34:59.888Z,7.20
2024-02-13T22:37:26.570Z,5.45
2024-02-13T22:39:53.212Z,6.13
2024-02-13T22:42:19.899Z,5.57
2024-02-13T22:44:46.576Z,5.65
2024-02-13T22:47:13.086Z,7.90
2024-02-13T22:49:39.774Z,5.90
2024-02-13T22:52:06.488Z,4.88
2024-02-13T22:54:32.947Z,6.22
2024-02-13T22:56:59.568Z,6.03
2024-02-13T22:59:26.082Z,6.45
2024-02-13T23:01:52.591Z,7.30
2024-02-13T23:04:19.820Z,7.78
2024-02-13T23:06:46.412Z,8.02
2024-02-13T23:09:18.049Z,5.13
2024-02-13T23:11:45.700Z,6.03
2024-02-13T23:14:15.101Z,5.65
2024-02-13T23:16:42.610Z,6.20
2024-02-13T23:19:11.344Z,5.57
2024-02-13T23:21:38.084Z,5.80
2024-02-13T23:24:09.038Z,6.10
2024-02-13T23:26:36.007Z,6.03
2024-02-13T23:29:02.564Z,6.70
2024-02-13T23:31:29.503Z,6.97
2024-02-13T23:33:56.320Z,7.43
2024-02-13T23:36:23.971Z,7.05
2024-02-13T23:38:50.829Z,5.18
2024-02-13T23:41:17.486Z,5.22
2024-02-13T23:43:44.736Z,5.57
2024-02-13T23:46:11.265Z,5.05
2024-02-13T23:48:38.596Z,5.03
2024-02-13T23:51:06.388Z,9.48
2024-02-13T23:53:33.125Z,4.95
2024-02-13T23:56:00.506Z,4.65
2024-02-13T23:58:28.130Z,6.13
